createdAt,value
2017-10-18T00:02:23.122Z,79.74
2017-10-18T00:04:50.514Z,79.69
2017-10-18T00:07:17.937Z,79.79
2017-10-18T00:09:45.347Z,79.97
2017-10-18T00:12:12.774Z,80.20
2017-10-18T00:14:40.197Z,80.46
2017-10-18T00:17:07.601Z,80.63
2017-10-18T00:19:35.016Z,80.73
2017-10-18T00:22:02.415Z,80.93
2017-10-18T00:24:29.872Z,81.01
2017-10-18T00:26:57.303Z,81.06
2017-10-18T00:29:24.716Z,81.21
2017-10-18T00:31:52.189Z,81.17
2017-10-18T00:34:19.602Z,81.23
2017-10-18T00:36:47.039Z,81.33
2017-10-18T00:39:14.446Z,81.34
2017-10-18T00:41:42.634Z,81.36
2017-10-18T00:44:10.054Z,81.38
2017-10-18T00:46:37.474Z,81.46
2017-10-18T00:49:04.915Z,81.53
2017-10-18T00:51:32.333Z,81.65
2017-10-18T00:53:59.770Z,81.75
2017-10-18T00:56:27.193Z,81.83
2017-10-18T00:58:54.608Z,81.92
2017-10-18T01:01:22.035Z,82.08
2017-10-18T01:03:49.468Z,82.24
2017-10-18T01:06:16.904Z,82.36
2017-10-18T01:08:44.412Z,82.38
2017-10-18T01:11:11.869Z,82.42
2017-10-18T01:13:39.287Z,82.43
2017-10-18T01:16:06.710Z,82.55
2017-10-18T01:18:34.130Z,82.73
2017-10-18T01:21:01.549Z,82.85
2017-10-18T01:23:28.967Z,82.95
2017-10-18T01:25:56.376Z,83.09
2017-10-18T01:28:23.828Z,83.15
2017-10-18T01:30:51.251Z,83.37
2017-10-18T01:33:18.660Z,83.58
2017-10-18T01:35:46.074Z,83.63
2017-10-18T01:38:13.478Z,83.66
2017-10-18T01:40:40.902Z,83.74
2017-10-18T01:43:08.315Z,83.81
2017-10-18T01:45:35.759Z,83.90
2017-10-18T01:48:03.182Z,83.86
2017-10-18T01:50:30.600Z,83.96
2017-10-18T01:52:58.025Z,84.08
2017-10-18T01:55:25.478Z,84.23
2017-10-18T01:57:52.892Z,84.38
2017-10-18T02:00:20.325Z,84.55
2017-10-18T02:02:47.726Z,84.51
2017-10-18T02:05:15.165Z,84.47
2017-10-18T02:07:42.574Z,84.42
2017-10-18T02:10:10.124Z,84.28
2017-10-18T02:12:37.540Z,84.26
2017-10-18T02:15:04.938Z,84.18
2017-10-18T02:17:32.364Z,84.37
2017-10-18T02:19:59.774Z,84.49
2017-10-18T02:22:27.188Z,84.66
2017-10-18T02:24:54.603Z,84.71
2017-10-18T02:27:22.016Z,84.80
2017-10-18T02:29:49.436Z,84.82
2017-10-18T02:32:16.862Z,84.52
2017-10-18T02:34:44.294Z,84.51
2017-10-18T02:37:11.719Z,84.56
2017-10-18T02:39:39.138Z,84.14
2017-10-18T02:42:07.019Z,84.13
2017-10-18T02:44:34.451Z,84.15
2017-10-18T02:47:01.879Z,84.99
2017-10-18T02:49:29.286Z,85.41
2017-10-18T02:51:56.706Z,100.00
2017-10-18T02:54:24.126Z,100.00
2017-10-18T02:56:51.561Z,85.52
2017-10-18T02:59:18.966Z,85.49
2017-10-18T03:01:46.380Z,85.49
2017-10-18T03:04:13.800Z,85.49
2017-10-18T03:06:41.325Z,85.52
2017-10-18T03:09:08.743Z,85.60
2017-10-18T03:11:36.154Z,85.68
2017-10-18T03:14:03.562Z,85.64
2017-10-18T03:16:30.981Z,85.62
2017-10-18T03:18:58.399Z,85.78
2017-10-18T03:21:25.820Z,85.94
2017-10-18T03:23:53.235Z,85.84
2017-10-18T03:26:20.641Z,87.35
2017-10-18T03:28:48.078Z,87.94
2017-10-18T03:31:15.515Z,87.91
2017-10-18T03:33:42.934Z,87.90
2017-10-18T03:36:10.348Z,88.03
2017-10-18T03:38:37.779Z,88.60
2017-10-18T03:41:05.182Z,88.23
2017-10-18T03:43:32.604Z,88.03
2017-10-18T03:46:00.012Z,87.68
2017-10-18T03:48:27.430Z,87.19
2017-10-18T03:50:54.851Z,87.33
2017-10-18T03:53:22.291Z,87.23
2017-10-18T03:55:49.747Z,87.20
2017-10-18T03:58:17.175Z,87.66
2017-10-18T04:00:44.592Z,87.67
2017-10-18T04:03:12.038Z,87.99
2017-10-18T04:05:39.463Z,88.07
2017-10-18T04:08:06.929Z,88.08
2017-10-18T04:10:34.349Z,87.99
2017-10-18T04:13:01.744Z,87.68
2017-10-18T04:15:29.188Z,87.42
2017-10-18T04:17:56.652Z,87.25
2017-10-18T04:20:24.109Z,87.25
2017-10-18T04:22:51.534Z,87.16
2017-10-18T04:25:18.948Z,87.07
2017-10-18T04:27:46.370Z,86.92
2017-10-18T04:30:13.837Z,86.84
2017-10-18T04:32:41.259Z,86.78
2017-10-18T04:35:08.659Z,86.85
2017-10-18T04:37:36.082Z,86.95
2017-10-18T04:40:03.479Z,87.12
2017-10-18T04:42:30.884Z,87.22
2017-10-18T04:44:59.027Z,87.15
2017-10-18T04:47:26.425Z,87.05
2017-10-18T04:49:53.950Z,86.75
2017-10-18T04:52:21.357Z,86.61
2017-10-18T04:54:48.781Z,86.37
2017-10-18T04:57:16.202Z,86.16
2017-10-18T04:59:43.672Z,86.01
2017-10-18T05:02:11.089Z,85.92
2017-10-18T05:04:38.518Z,86.12
2017-10-18T05:07:06.072Z,86.41
2017-10-18T05:09:33.494Z,86.54
2017-10-18T05:12:00.916Z,86.65
2017-10-18T05:14:28.332Z,86.41
2017-10-18T05:16:55.752Z,86.31
2017-10-18T05:19:23.217Z,86.46
2017-10-18T05:21:50.668Z,86.67
2017-10-18T05:24:18.116Z,86.71
2017-10-18T05:26:45.530Z,86.71
2017-10-18T05:29:13.028Z,86.60
2017-10-18T05:31:43.152Z,86.62
2017-10-18T05:34:10.610Z,86.45
2017-10-18T05:36:38.362Z,86.23
2017-10-18T05:39:06.609Z,86.10
2017-10-18T05:41:34.022Z,86.04
2017-10-18T05:44:02.062Z,86.12
2017-10-18T05:46:29.485Z,86.25
2017-10-18T05:48:56.920Z,86.47
2017-10-18T05:51:24.364Z,86.90
2017-10-18T05:53:51.833Z,87.41
2017-10-18T05:56:19.267Z,87.54
2017-10-18T05:58:46.694Z,87.54
2017-10-18T06:01:14.171Z,87.48
2017-10-18T06:03:41.588Z,87.42
2017-10-18T06:06:11.143Z,87.29
2017-10-18T06:08:40.443Z,86.63
2017-10-18T06:11:07.960Z,86.37
2017-10-18T06:13:35.396Z,86.37
2017-10-18T06:16:02.890Z,86.55
2017-10-18T06:18:30.318Z,86.59
2017-10-18T06:20:57.770Z,86.73
2017-10-18T06:23:25.257Z,87.14
2017-10-18T06:25:52.737Z,87.26
2017-10-18T06:28:20.325Z,87.28
2017-10-18T06:30:47.804Z,87.26
2017-10-18T06:33:15.314Z,87.32
2017-10-18T06:35:42.730Z,87.49
2017-10-18T06:38:10.169Z,87.46
2017-10-18T06:40:37.601Z,87.45
2017-10-18T06:43:05.021Z,87.35
2017-10-18T06:45:32.481Z,87.30
2017-10-18T06:47:59.922Z,87.25
2017-10-18T06:50:27.385Z,86.99
2017-10-18T06:52:54.814Z,86.71
2017-10-18T06:55:22.240Z,86.34
2017-10-18T06:57:49.659Z,86.14
2017-10-18T07:00:17.095Z,86.19
2017-10-18T07:02:44.515Z,86.31
2017-10-18T07:05:11.963Z,86.22
2017-10-18T07:07:39.388Z,86.37
2017-10-18T07:10:06.836Z,86.63
2017-10-18T07:12:34.303Z,86.77
2017-10-18T07:15:01.724Z,86.12
2017-10-18T07:17:29.207Z,86.79
2017-10-18T07:19:56.737Z,86.90
2017-10-18T07:22:24.305Z,87.21
2017-10-18T07:24:51.970Z,86.86
2017-10-18T07:27:19.457Z,86.62
2017-10-18T07:29:46.948Z,86.33
2017-10-18T07:32:14.371Z,86.03
2017-10-18T07:34:41.862Z,85.59
2017-10-18T07:37:09.279Z,85.57
2017-10-18T07:39:36.687Z,85.54
2017-10-18T07:42:04.106Z,85.50
2017-10-18T07:44:31.511Z,85.72
2017-10-18T07:46:58.986Z,85.47
2017-10-18T07:49:26.427Z,85.47
2017-10-18T07:51:53.853Z,85.22
2017-10-18T07:54:21.309Z,84.85
2017-10-18T07:56:48.732Z,84.61
2017-10-18T07:59:16.173Z,84.67
2017-10-18T08:01:43.614Z,84.82
2017-10-18T08:04:11.430Z,84.66
2017-10-18T08:06:38.859Z,84.60
2017-10-18T08:09:06.348Z,84.68
2017-10-18T08:11:33.794Z,84.77
2017-10-18T08:14:01.220Z,84.54
2017-10-18T08:16:28.640Z,84.50
2017-10-18T08:18:56.045Z,84.41
2017-10-18T08:21:23.506Z,84.43
2017-10-18T08:23:50.958Z,84.32
2017-10-18T08:26:18.344Z,84.47
2017-10-18T08:28:45.752Z,84.33
2017-10-18T08:31:13.175Z,84.19
2017-10-18T08:33:40.608Z,84.04
2017-10-18T08:36:08.048Z,84.13
2017-10-18T08:38:35.487Z,83.91
2017-10-18T08:41:02.948Z,83.67
2017-10-18T08:43:30.426Z,83.49
2017-10-18T08:45:57.855Z,83.39
2017-10-18T08:48:25.345Z,83.55
2017-10-18T08:50:53.051Z,83.32
2017-10-18T08:53:20.590Z,83.07
2017-10-18T08:55:48.046Z,82.96
2017-10-18T08:58:15.508Z,82.94
2017-10-18T09:00:42.945Z,82.89
2017-10-18T09:03:10.429Z,83.01
2017-10-18T09:05:37.869Z,83.26
2017-10-18T09:08:05.346Z,83.31
2017-10-18T09:10:32.781Z,83.51
2017-10-18T09:13:00.188Z,83.56
2017-10-18T09:15:27.654Z,83.60
2017-10-18T09:17:55.117Z,83.71
2017-10-18T09:20:22.571Z,83.98
2017-10-18T09:22:49.978Z,83.99
2017-10-18T09:25:17.774Z,84.37
2017-10-18T09:27:45.212Z,83.98
2017-10-18T09:30:12.613Z,83.83
2017-10-18T09:32:40.042Z,83.70
2017-10-18T09:35:07.465Z,83.37
2017-10-18T09:37:35.575Z,83.36
2017-10-18T09:40:03.004Z,82.80
2017-10-18T09:42:30.869Z,82.35
2017-10-18T09:44:58.276Z,81.92
2017-10-18T09:47:25.693Z,81.35
2017-10-18T09:49:53.213Z,81.12
2017-10-18T09:52:20.632Z,80.98
2017-10-18T09:54:48.070Z,80.58
2017-10-18T09:57:15.519Z,80.22
2017-10-18T09:59:42.965Z,79.94
2017-10-18T10:02:10.391Z,80.11
2017-10-18T10:04:37.822Z,78.86
2017-10-18T10:07:05.275Z,78.06
2017-10-18T10:09:32.836Z,77.64
2017-10-18T10:12:00.290Z,76.57
2017-10-18T10:14:27.698Z,75.16
2017-10-18T10:16:55.167Z,73.43
2017-10-18T10:19:22.607Z,71.40
2017-10-18T10:21:50.049Z,69.47
2017-10-18T10:24:17.495Z,67.42
2017-10-18T10:26:44.949Z,65.44
2017-10-18T10:29:12.428Z,63.86
2017-10-18T10:31:40.210Z,63.11
2017-10-18T10:34:07.650Z,61.33
2017-10-18T10:36:35.403Z,61.78
2017-10-18T10:39:02.816Z,61.16
2017-10-18T10:41:30.211Z,62.00
2017-10-18T10:43:57.677Z,62.43
2017-10-18T10:46:25.110Z,64.25
2017-10-18T10:48:52.556Z,65.09
2017-10-18T10:51:19.998Z,65.21
2017-10-18T10:53:47.425Z,65.70
2017-10-18T10:56:14.856Z,65.76
2017-10-18T10:58:42.315Z,65.81
2017-10-18T11:01:09.780Z,65.21
2017-10-18T11:03:37.219Z,63.99
2017-10-18T11:06:04.664Z,62.63
2017-10-18T11:08:32.124Z,61.41
2017-10-18T11:10:59.547Z,59.94
2017-10-18T11:13:27.048Z,57.33
2017-10-18T11:15:54.453Z,56.36
2017-10-18T11:18:21.953Z,54.91
2017-10-18T11:20:49.493Z,54.94
2017-10-18T11:23:16.925Z,54.44
2017-10-18T11:25:44.342Z,52.96
2017-10-18T11:28:11.772Z,52.77
2017-10-18T11:30:39.276Z,52.63
2017-10-18T11:33:06.705Z,52.33
2017-10-18T11:35:34.187Z,51.12
2017-10-18T11:38:01.618Z,50.13
2017-10-18T11:40:29.057Z,49.12
2017-10-18T11:42:56.519Z,49.01
2017-10-18T11:45:23.944Z,47.87
2017-10-18T11:47:51.424Z,48.82
2017-10-18T11:50:18.922Z,48.68
2017-10-18T11:52:46.342Z,48.12
2017-10-18T11:55:13.837Z,47.66
2017-10-18T11:57:41.306Z,47.41
2017-10-18T12:00:08.725Z,46.15
2017-10-18T12:02:36.137Z,45.15
2017-10-18T12:05:03.539Z,44.82
2017-10-18T12:07:31.024Z,45.49
2017-10-18T12:09:58.441Z,44.75
2017-10-18T12:12:25.935Z,42.92
2017-10-18T12:14:53.383Z,42.69
2017-10-18T12:17:20.821Z,43.47
2017-10-18T12:19:48.253Z,44.37
2017-10-18T12:22:15.646Z,44.10
2017-10-18T12:24:43.094Z,44.92
2017-10-18T12:27:10.609Z,44.38
2017-10-18T12:29:38.018Z,43.79
2017-10-18T12:32:05.479Z,43.48
2017-10-18T12:34:32.938Z,43.89
2017-10-18T12:37:00.386Z,44.85
2017-10-18T12:39:27.796Z,44.24
2017-10-18T12:41:55.382Z,44.06
2017-10-18T12:44:22.789Z,43.68
2017-10-18T12:46:50.241Z,43.85
2017-10-18T12:49:17.687Z,44.56
2017-10-18T12:51:45.152Z,44.29
2017-10-18T12:54:12.613Z,45.16
2017-10-18T12:56:40.103Z,46.44
2017-10-18T12:59:07.582Z,46.40
2017-10-18T13:01:35.013Z,46.75
2017-10-18T13:04:02.483Z,45.87
2017-10-18T13:06:29.954Z,43.89
2017-10-18T13:08:57.355Z,44.32
2017-10-18T13:11:24.797Z,43.76
2017-10-18T13:13:52.253Z,42.74
2017-10-18T13:16:19.680Z,42.50
2017-10-18T13:18:47.177Z,41.88
2017-10-18T13:21:14.665Z,41.79
2017-10-18T13:23:42.149Z,41.03
2017-10-18T13:26:09.565Z,40.14
2017-10-18T13:28:37.003Z,40.69
2017-10-18T13:31:04.410Z,40.63
2017-10-18T13:33:31.832Z,40.17
2017-10-18T13:35:59.259Z,39.74
2017-10-18T13:38:26.652Z,39.94
2017-10-18T13:40:54.172Z,40.08
2017-10-18T13:43:21.601Z,39.81
2017-10-18T13:45:49.007Z,40.03
2017-10-18T13:48:16.475Z,40.08
2017-10-18T13:50:43.892Z,40.17
2017-10-18T13:53:11.445Z,40.24
2017-10-18T13:55:38.899Z,41.02
2017-10-18T13:58:06.369Z,41.09
2017-10-18T14:00:33.824Z,41.73
2017-10-18T14:03:01.300Z,42.54
2017-10-18T14:05:28.861Z,43.01
2017-10-18T14:07:56.274Z,43.73
2017-10-18T14:10:23.777Z,44.10
2017-10-18T14:12:51.186Z,44.54
2017-10-18T14:15:18.660Z,44.87
2017-10-18T14:17:46.148Z,45.41
2017-10-18T14:20:13.588Z,46.11
2017-10-18T14:22:41.105Z,46.26
2017-10-18T14:25:08.588Z,47.46
2017-10-18T14:27:36.030Z,48.29
2017-10-18T14:30:03.497Z,49.08
2017-10-18T14:32:30.946Z,49.79
2017-10-18T14:34:58.383Z,50.76
2017-10-18T14:37:25.867Z,51.82
2017-10-18T14:39:53.326Z,52.81
2017-10-18T14:42:20.734Z,53.61
2017-10-18T14:44:48.169Z,54.34
2017-10-18T14:47:15.645Z,55.16
2017-10-18T14:49:43.104Z,55.69
2017-10-18T14:52:10.608Z,56.37
2017-10-18T14:54:38.047Z,57.70
2017-10-18T14:57:05.545Z,58.50
2017-10-18T14:59:33.020Z,59.16
2017-10-18T15:02:00.437Z,59.72
2017-10-18T15:04:27.961Z,59.90
2017-10-18T15:06:55.394Z,60.14
2017-10-18T15:09:22.841Z,60.34
2017-10-18T15:11:50.299Z,60.54
2017-10-18T15:14:17.734Z,60.73
2017-10-18T15:16:45.215Z,60.88
2017-10-18T15:19:12.672Z,61.10
2017-10-18T15:21:40.112Z,61.30
2017-10-18T15:24:07.569Z,61.55
2017-10-18T15:26:34.993Z,62.06
2017-10-18T15:29:02.428Z,62.33
2017-10-18T15:31:29.840Z,62.69
2017-10-18T15:33:57.264Z,63.00
2017-10-18T15:36:25.586Z,63.13
2017-10-18T15:38:53.112Z,63.38
2017-10-18T15:41:20.590Z,63.58
2017-10-18T15:43:48.038Z,63.66
2017-10-18T15:46:15.470Z,63.76
2017-10-18T15:48:42.957Z,63.91
2017-10-18T15:51:10.380Z,64.12
2017-10-18T15:53:37.913Z,64.28
2017-10-18T15:56:05.352Z,64.50
2017-10-18T15:58:32.793Z,64.84
2017-10-18T16:01:00.214Z,65.07
2017-10-18T16:03:27.633Z,65.18
2017-10-18T16:05:55.074Z,65.26
2017-10-18T16:08:22.545Z,65.27
2017-10-18T16:10:49.954Z,65.44
2017-10-18T16:13:17.729Z,65.52
2017-10-18T16:15:45.176Z,65.80
2017-10-18T16:18:12.682Z,66.02
2017-10-18T16:20:40.138Z,66.28
2017-10-18T16:23:07.538Z,66.61
2017-10-18T16:25:35.507Z,66.74
2017-10-18T16:28:02.932Z,66.93
2017-10-18T16:30:30.348Z,67.08
2017-10-18T16:32:57.810Z,67.22
2017-10-18T16:35:25.304Z,67.45
2017-10-18T16:37:52.749Z,67.67
2017-10-18T16:40:20.199Z,67.98
2017-10-18T16:42:47.614Z,68.14
2017-10-18T16:45:15.053Z,68.28
2017-10-18T16:47:42.487Z,68.37
2017-10-18T16:50:09.929Z,68.71
2017-10-18T16:52:37.390Z,68.95
2017-10-18T16:55:04.806Z,69.16
2017-10-18T16:57:32.225Z,69.34
2017-10-18T16:59:59.668Z,69.50
2017-10-18T17:02:27.120Z,69.73
2017-10-18T17:04:54.574Z,69.67
2017-10-18T17:07:22.009Z,69.90
2017-10-18T17:09:49.546Z,69.86
2017-10-18T17:12:16.956Z,69.86
2017-10-18T17:14:44.398Z,70.06
2017-10-18T17:17:11.825Z,70.04
2017-10-18T17:19:39.252Z,70.41
2017-10-18T17:22:06.867Z,70.33
2017-10-18T17:24:34.292Z,70.45
2017-10-18T17:27:01.723Z,70.61
2017-10-18T17:29:29.194Z,70.70
2017-10-18T17:31:56.649Z,71.02
2017-10-18T17:34:24.093Z,70.99
2017-10-18T17:36:51.512Z,71.15
2017-10-18T17:39:18.927Z,71.13
2017-10-18T17:41:46.394Z,71.32
2017-10-18T17:44:13.833Z,71.51
2017-10-18T17:46:41.283Z,71.54
2017-10-18T17:49:08.730Z,71.38
2017-10-18T17:51:36.163Z,71.22
2017-10-18T17:54:03.577Z,71.34
2017-10-18T17:56:31.023Z,71.23
2017-10-18T17:58:58.501Z,71.22
2017-10-18T18:01:25.934Z,71.14
2017-10-18T18:03:53.402Z,71.14
2017-10-18T18:06:20.814Z,71.13
2017-10-18T18:08:48.235Z,71.29
2017-10-18T18:11:15.631Z,71.20
2017-10-18T18:13:43.046Z,71.15
2017-10-18T18:18:37.222Z,70.51
2017-10-18T18:21:04.657Z,70.22
2017-10-18T18:23:32.099Z,70.01
2017-10-18T18:25:59.557Z,69.89
2017-10-18T18:28:27.027Z,69.79
2017-10-18T18:30:54.646Z,69.82
2017-10-18T18:33:22.097Z,70.03
2017-10-18T18:35:49.727Z,70.16
2017-10-18T18:38:17.248Z,70.09
2017-10-18T18:40:44.667Z,70.18
2017-10-18T18:43:12.293Z,70.23
2017-10-18T18:45:39.900Z,70.01
2017-10-18T18:48:07.348Z,69.86
2017-10-18T18:50:34.990Z,69.95
2017-10-18T18:53:02.472Z,69.81
2017-10-18T18:55:29.950Z,69.60
2017-10-18T18:57:57.385Z,69.69
2017-10-18T19:00:24.838Z,69.54
2017-10-18T19:02:52.323Z,69.52
2017-10-18T19:05:19.799Z,69.53
2017-10-18T19:07:47.202Z,69.58
2017-10-18T19:10:14.651Z,69.36
2017-10-18T19:12:42.084Z,69.47
2017-10-18T19:15:09.551Z,69.34
2017-10-18T19:17:37.011Z,69.04
2017-10-18T19:20:05.277Z,69.27
2017-10-18T19:22:32.687Z,70.15
2017-10-18T19:25:00.143Z,70.77
2017-10-18T19:27:27.565Z,71.25
2017-10-18T19:29:55.008Z,71.69
2017-10-18T19:32:22.477Z,72.21
2017-10-18T19:34:49.896Z,73.04
2017-10-18T19:37:17.310Z,73.40
2017-10-18T19:39:44.747Z,73.73
2017-10-18T19:42:12.200Z,74.09
2017-10-18T19:44:39.600Z,74.99
2017-10-18T19:47:07.018Z,75.79
2017-10-18T19:49:34.497Z,76.23
2017-10-18T19:52:01.932Z,76.61
2017-10-18T19:54:29.388Z,76.98
2017-10-18T19:56:56.809Z,77.34
2017-10-18T19:59:24.258Z,77.39
2017-10-18T20:01:51.685Z,77.46
2017-10-18T20:04:19.117Z,77.81
2017-10-18T20:06:46.558Z,77.98
2017-10-18T20:09:14.018Z,78.06
2017-10-18T20:11:41.524Z,78.31
2017-10-18T20:14:08.948Z,78.72
2017-10-18T20:16:36.376Z,78.81
2017-10-18T20:19:03.916Z,79.06
2017-10-18T20:21:31.416Z,79.12
2017-10-18T20:23:58.854Z,79.41
2017-10-18T20:26:26.317Z,79.46
2017-10-18T20:28:53.742Z,79.42
2017-10-18T20:31:21.151Z,79.59
2017-10-18T20:33:48.597Z,79.66
2017-10-18T20:36:16.577Z,79.74
2017-10-18T20:38:44.010Z,79.76
2017-10-18T20:41:11.447Z,79.37
2017-10-18T20:43:38.927Z,79.33
2017-10-18T20:46:06.425Z,79.41
2017-10-18T20:48:33.871Z,79.66
2017-10-18T20:51:01.632Z,79.61
2017-10-18T20:53:29.094Z,79.68
2017-10-18T20:55:56.511Z,79.73
2017-10-18T20:58:23.981Z,79.68
2017-10-18T21:00:51.410Z,79.33
2017-10-18T21:03:18.882Z,79.34
2017-10-18T21:05:46.375Z,79.30
2017-10-18T21:08:13.836Z,79.46
2017-10-18T21:10:41.270Z,79.64
2017-10-18T21:13:08.744Z,79.76
2017-10-18T21:15:36.169Z,79.83
2017-10-18T21:18:03.570Z,79.95
2017-10-18T21:20:30.997Z,80.06
2017-10-18T21:22:58.470Z,79.99
2017-10-18T21:25:25.892Z,80.15
2017-10-18T21:27:53.334Z,80.23
2017-10-18T21:30:20.762Z,80.23
2017-10-18T21:32:48.212Z,80.25
2017-10-18T21:35:15.654Z,80.39
2017-10-18T21:37:43.199Z,80.62
2017-10-18T21:40:10.617Z,80.80
2017-10-18T21:42:38.144Z,80.99
2017-10-18T21:45:05.737Z,81.11
2017-10-18T21:47:33.283Z,81.12
2017-10-18T21:50:00.722Z,80.99
2017-10-18T21:52:28.155Z,80.98
2017-10-18T21:54:55.604Z,81.01
2017-10-18T21:57:23.017Z,80.97
2017-10-18T21:59:51.304Z,80.83
2017-10-18T22:02:18.754Z,80.80
2017-10-18T22:04:46.212Z,80.80
2017-10-18T22:07:13.829Z,80.84
2017-10-18T22:09:41.287Z,80.99
2017-10-18T22:12:08.840Z,81.21
2017-10-18T22:14:36.248Z,81.19
2017-10-18T22:17:03.690Z,81.28
2017-10-18T22:19:31.148Z,81.48
2017-10-18T22:21:58.553Z,81.54
2017-10-18T22:24:26.044Z,81.61
2017-10-18T22:26:53.507Z,81.69
2017-10-18T22:29:20.930Z,82.04
2017-10-18T22:31:48.346Z,82.02
2017-10-18T22:34:15.846Z,81.83
2017-10-18T22:36:43.240Z,81.98
2017-10-18T22:39:10.653Z,82.07
2017-10-18T22:41:38.099Z,82.14
2017-10-18T22:44:05.495Z,82.20
2017-10-18T22:46:32.924Z,82.14
2017-10-18T22:49:00.337Z,81.93
2017-10-18T22:51:27.854Z,81.85
2017-10-18T22:53:55.259Z,81.74
2017-10-18T22:56:22.673Z,81.51
2017-10-18T22:58:50.115Z,81.62
2017-10-18T23:01:17.516Z,81.72
2017-10-18T23:03:44.934Z,81.99
2017-10-18T23:06:12.456Z,82.12
2017-10-18T23:08:39.865Z,82.05
2017-10-18T23:11:07.279Z,82.22
2017-10-18T23:13:34.753Z,82.26
2017-10-18T23:16:02.180Z,82.41
2017-10-18T23:18:29.574Z,82.85
2017-10-18T23:20:57.328Z,82.90
2017-10-18T23:23:24.784Z,83.20
2017-10-18T23:25:52.185Z,83.15
2017-10-18T23:28:19.701Z,83.07
2017-10-18T23:30:47.191Z,82.99
2017-10-18T23:33:14.597Z,82.98
2017-10-18T23:35:42.069Z,82.75
2017-10-18T23:38:09.529Z,82.67
2017-10-18T23:40:36.939Z,82.88
2017-10-18T23:43:04.342Z,82.91
2017-10-18T23:45:31.765Z,83.11
2017-10-18T23:47:59.177Z,83.25
2017-10-18T23:50:26.597Z,83.23
2017-10-18T23:52:54.850Z,83.22
2017-10-18T23:55:22.545Z,83.23
2017-10-18T23:57:49.999Z,83.02
